sensor_id;sensor_type;location;lat;lon;timestamp;pressure;altitude;pressure_sealevel;temperature;humidity
50852;BME280;43953;45.508;-122.806;2023-05-21T00:00:13;100902.00;;;28.24;37.26
50852;BME280;43953;45.508;-122.806;2023-05-21T00:00:45;100894.53;;;28.25;37.52
50852;BME280;43953;45.508;-122.806;2023-05-21T00:01:17;100903.31;;;28.27;37.42
50852;BME280;43953;45.508;-122.806;2023-05-21T00:01:48;100903.31;;;28.27;37.31
50852;BME280;43953;45.508;-122.806;2023-05-21T00:02:20;100891.28;;;28.23;37.20
50852;BME280;43953;45.508;-122.806;2023-05-21T00:02:52;100905.78;;;28.28;37.41
50852;BME280;43953;45.508;-122.806;2023-05-21T00:03:24;100904.13;;;28.27;37.36
50852;BME280;43953;45.508;-122.806;2023-05-21T00:03:57;100901.34;;;28.27;37.50
50852;BME280;43953;45.508;-122.806;2023-05-21T00:04:29;100883.91;;;28.18;37.28
50852;BME280;43953;45.508;-122.806;2023-05-21T00:05:04;100900.53;;;28.27;37.32
50852;BME280;43953;45.508;-122.806;2023-05-21T00:05:36;100904.97;;;28.28;37.46
50852;BME280;43953;45.508;-122.806;2023-05-21T00:06:09;100899.44;;;28.28;37.37
50852;BME280;43953;45.508;-122.806;2023-05-21T00:06:40;100900.53;;;28.27;37.24
50852;BME280;43953;45.508;-122.806;2023-05-21T00:07:12;100903.47;;;28.30;37.28
50852;BME280;43953;45.508;-122.806;2023-05-21T00:07:45;100903.47;;;28.30;37.56
50852;BME280;43953;45.508;-122.806;2023-05-21T00:08:17;100908.19;;;28.30;37.27
50852;BME280;43953;45.508;-122.806;2023-05-21T00:08:48;100904.31;;;28.31;37.32
50852;BME280;43953;45.508;-122.806;2023-05-21T00:09:20;100896.66;;;28.28;37.55
50852;BME280;43953;45.508;-122.806;2023-05-21T00:09:52;100903.47;;;28.30;37.71
50852;BME280;43953;45.508;-122.806;2023-05-21T00:10:24;100902.19;;;28.28;37.37
50852;BME280;43953;45.508;-122.806;2023-05-21T00:10:56;100902.66;;;28.30;37.46
50852;BME280;43953;45.508;-122.806;2023-05-21T00:11:28;100904.31;;;28.31;37.47
50852;BME280;43953;45.508;-122.806;2023-05-21T00:12:00;100905.94;;;28.32;37.48
50852;BME280;43953;45.508;-122.806;2023-05-21T00:12:32;100903.97;;;28.32;37.47
50852;BME280;43953;45.508;-122.806;2023-05-21T00:13:04;100907.56;;;28.33;37.45
50852;BME280;43953;45.508;-122.806;2023-05-21T00:13:35;100901.34;;;28.27;37.51
50852;BME280;43953;45.508;-122.806;2023-05-21T00:14:08;100902.34;;;28.31;37.39
50852;BME280;43953;45.508;-122.806;2023-05-21T00:14:40;100904.31;;;28.31;37.69
50852;BME280;43953;45.508;-122.806;2023-05-21T00:15:12;100910.31;;;28.33;37.49
50852;BME280;43953;45.508;-122.806;2023-05-21T00:15:43;100907.56;;;28.33;37.73
50852;BME280;43953;45.508;-122.806;2023-05-21T00:16:15;100910.81;;;28.35;37.65
50852;BME280;43953;45.508;-122.806;2023-05-21T00:16:47;100897.63;;;28.32;37.80
50852;BME280;43953;45.508;-122.806;2023-05-21T00:17:19;100904.13;;;28.36;37.61
50852;BME280;43953;45.508;-122.806;2023-05-21T00:17:50;100907.56;;;28.33;37.56
50852;BME280;43953;45.508;-122.806;2023-05-21T00:18:22;100903.00;;;28.37;37.39
50852;BME280;43953;45.508;-122.806;2023-05-21T00:18:55;100895.34;;;28.34;37.67
50852;BME280;43953;45.508;-122.806;2023-05-21T00:19:28;100904.63;;;28.38;37.42
50852;BME280;43953;45.508;-122.806;2023-05-21T00:19:59;100903.00;;;28.37;37.45
50852;BME280;43953;45.508;-122.806;2023-05-21T00:20:32;100906.25;;;28.39;37.57
50852;BME280;43953;45.508;-122.806;2023-05-21T00:21:04;100908.72;;;28.41;37.55
50852;BME280;43953;45.508;-122.806;2023-05-21T00:21:36;100898.47;;;28.41;37.58
50852;BME280;43953;45.508;-122.806;2023-05-21T00:22:09;100912.31;;;28.41;37.43
50852;BME280;43953;45.508;-122.806;2023-05-21T00:22:41;100904.00;;;28.41;37.42
50852;BME280;43953;45.508;-122.806;2023-05-21T00:23:13;100899.41;;;28.36;37.47
50852;BME280;43953;45.508;-122.806;2023-05-21T00:23:48;100907.28;;;28.43;37.51
50852;BME280;43953;45.508;-122.806;2023-05-21T00:24:20;100908.91;;;28.44;37.58
50852;BME280;43953;45.508;-122.806;2023-05-21T00:24:52;100911.38;;;28.46;37.40
50852;BME280;43953;45.508;-122.806;2023-05-21T00:25:23;100904.97;;;28.45;37.42
50852;BME280;43953;45.508;-122.806;2023-05-21T00:25:55;100904.50;;;28.43;37.28
50852;BME280;43953;45.508;-122.806;2023-05-21T00:26:27;100907.28;;;28.43;37.14
50852;BME280;43953;45.508;-122.806;2023-05-21T00:26:58;100908.25;;;28.47;37.43
50852;BME280;43953;45.508;-122.806;2023-05-21T00:27:31;100911.03;;;28.47;37.43
50852;BME280;43953;45.508;-122.806;2023-05-21T00:28:03;100904.97;;;28.45;37.56
50852;BME280;43953;45.508;-122.806;2023-05-21T00:28:34;100903.88;;;28.46;37.38
50852;BME280;43953;45.508;-122.806;2023-05-21T00:29:06;100908.75;;;28.49;37.40
50852;BME280;43953;45.508;-122.806;2023-05-21T00:29:38;100908.75;;;28.49;37.53
50852;BME280;43953;45.508;-122.806;2023-05-21T00:30:10;100904.84;;;28.50;37.48
50852;BME280;43953;45.508;-122.806;2023-05-21T00:30:42;100908.41;;;28.51;37.51
50852;BME280;43953;45.508;-122.806;2023-05-21T00:31:13;100909.22;;;28.51;37.36
50852;BME280;43953;45.508;-122.806;2023-05-21T00:31:46;100903.69;;;28.51;37.41
50852;BME280;43953;45.508;-122.806;2023-05-21T00:32:17;100910.88;;;28.52;37.44
50852;BME280;43953;45.508;-122.806;2023-05-21T00:32:49;100918.03;;;28.53;37.52
50852;BME280;43953;45.508;-122.806;2023-05-21T00:33:21;100909.22;;;28.51;37.48
50852;BME280;43953;45.508;-122.806;2023-05-21T00:33:53;100918.03;;;28.53;37.52
50852;BME280;43953;45.508;-122.806;2023-05-21T00:34:24;100920.50;;;28.55;37.37
50852;BME280;43953;45.508;-122.806;2023-05-21T00:34:56;100913.31;;;28.54;37.43
50852;BME280;43953;45.508;-122.806;2023-05-21T00:35:28;100920.78;;;28.53;37.63
50852;BME280;43953;45.508;-122.806;2023-05-21T00:36:00;100915.25;;;28.53;37.56
50852;BME280;43953;45.508;-122.806;2023-05-21T00:36:32;100912.50;;;28.53;37.55
50852;BME280;43953;45.508;-122.806;2023-05-21T00:37:04;100912.50;;;28.53;37.73
50852;BME280;43953;45.508;-122.806;2023-05-21T00:37:36;100915.25;;;28.53;37.69
50852;BME280;43953;45.508;-122.806;2023-05-21T00:38:08;100912.50;;;28.53;37.73
50852;BME280;43953;45.508;-122.806;2023-05-21T00:38:41;100912.50;;;28.53;37.80
50852;BME280;43953;45.508;-122.806;2023-05-21T00:39:14;100905.31;;;28.52;38.01
50852;BME280;43953;45.508;-122.806;2023-05-21T00:39:49;100913.63;;;28.52;37.83
50852;BME280;43953;45.508;-122.806;2023-05-21T00:40:21;100908.91;;;28.53;37.78
50852;BME280;43953;45.508;-122.806;2023-05-21T00:40:53;100913.31;;;28.54;37.94
50852;BME280;43953;45.508;-122.806;2023-05-21T00:41:24;100911.38;;;28.54;37.83
50852;BME280;43953;45.508;-122.806;2023-05-21T00:41:56;100909.06;;;28.56;37.79
50852;BME280;43953;45.508;-122.806;2023-05-21T00:42:28;100911.84;;;28.56;37.83
50852;BME280;43953;45.508;-122.806;2023-05-21T00:43:00;100910.22;;;28.55;37.92
50852;BME280;43953;45.508;-122.806;2023-05-21T00:43:32;100914.28;;;28.58;37.81
50852;BME280;43953;45.508;-122.806;2023-05-21T00:44:05;100901.56;;;28.57;37.72
50852;BME280;43953;45.508;-122.806;2023-05-21T00:44:36;100910.38;;;28.59;37.95
50852;BME280;43953;45.508;-122.806;2023-05-21T00:45:08;100913.47;;;28.57;37.82
50852;BME280;43953;45.508;-122.806;2023-05-21T00:45:41;100905.66;;;28.60;37.60
50852;BME280;43953;45.508;-122.806;2023-05-21T00:46:19;100908.75;;;28.58;37.74
50852;BME280;43953;45.508;-122.806;2023-05-21T00:46:51;100908.91;;;28.62;37.69
50852;BME280;43953;45.508;-122.806;2023-05-21T00:47:27;100901.75;;;28.61;37.70
50852;BME280;43953;45.508;-122.806;2023-05-21T00:47:59;100901.75;;;28.61;37.62
50852;BME280;43953;45.508;-122.806;2023-05-21T00:48:32;100903.03;;;28.63;37.67
50852;BME280;43953;45.508;-122.806;2023-05-21T00:49:05;100905.50;;;28.65;37.66
50852;BME280;43953;45.508;-122.806;2023-05-21T00:49:37;100911.03;;;28.65;37.60
50852;BME280;43953;45.508;-122.806;2023-05-21T00:50:10;100906.63;;;28.64;37.30
50852;BME280;43953;45.508;-122.806;2023-05-21T00:50:42;100904.34;;;28.66;37.56
50852;BME280;43953;45.508;-122.806;2023-05-21T00:51:15;100906.28;;;28.65;37.65
50852;BME280;43953;45.508;-122.806;2023-05-21T00:51:48;100904.34;;;28.66;37.72
50852;BME280;43953;45.508;-122.806;2023-05-21T00:52:22;100888.38;;;28.63;37.65
50852;BME280;43953;45.508;-122.806;2023-05-21T00:52:57;100882.16;;;28.66;37.58
50852;BME280;43953;45.508;-122.806;2023-05-21T00:53:30;100902.88;;;28.68;37.70
50852;BME280;43953;45.508;-122.806;2023-05-21T00:54:02;100895.72;;;28.67;37.71
50852;BME280;43953;45.508;-122.806;2023-05-21T00:54:34;100898.13;;;28.69;37.76
50852;BME280;43953;45.508;-122.806;2023-05-21T00:55:07;100894.25;;;28.70;37.68
50852;BME280;43953;45.508;-122.806;2023-05-21T00:55:39;100887.06;;;28.69;37.94
50852;BME280;43953;45.508;-122.806;2023-05-21T00:56:11;100897.03;;;28.70;37.71
50852;BME280;43953;45.508;-122.806;2023-05-21T00:56:43;100885.94;;;28.70;37.78
50852;BME280;43953;45.508;-122.806;2023-05-21T00:57:17;100888.72;;;28.70;37.78
50852;BME280;43953;45.508;-122.806;2023-05-21T00:57:52;100886.41;;;28.72;37.85
50852;BME280;43953;45.508;-122.806;2023-05-21T00:58:23;100887.56;;;28.71;37.75
50852;BME280;43953;45.508;-122.806;2023-05-21T00:58:56;100884.78;;;28.71;37.63
50852;BME280;43953;45.508;-122.806;2023-05-21T00:59:28;100886.41;;;28.72;37.69
50852;BME280;43953;45.508;-122.806;2023-05-21T01:00:00;100883.16;;;28.70;37.75
50852;BME280;43953;45.508;-122.806;2023-05-21T01:00:35;100883.31;;;28.73;37.76
50852;BME280;43953;45.508;-122.806;2023-05-21T01:01:11;100885.28;;;28.73;37.66
50852;BME280;43953;45.508;-122.806;2023-05-21T01:01:44;100882.97;;;28.75;37.63
50852;BME280;43953;45.508;-122.806;2023-05-21T01:02:15;100885.28;;;28.73;37.80
50852;BME280;43953;45.508;-122.806;2023-05-21T01:02:50;100882.97;;;28.75;37.88
50852;BME280;43953;45.508;-122.806;2023-05-21T01:03:22;100884.63;;;28.76;37.63
50852;BME280;43953;45.508;-122.806;2023-05-21T01:03:54;100884.28;;;28.77;37.82
50852;BME280;43953;45.508;-122.806;2023-05-21T01:04:28;100882.66;;;28.76;37.86
50852;BME280;43953;45.508;-122.806;2023-05-21T01:05:00;100876.31;;;28.76;37.92
50852;BME280;43953;45.508;-122.806;2023-05-21T01:05:31;100890.63;;;28.78;37.89
50852;BME280;43953;45.508;-122.806;2023-05-21T01:06:04;100885.44;;;28.76;37.74
50852;BME280;43953;45.508;-122.806;2023-05-21T01:06:36;100889.50;;;28.79;37.89
50852;BME280;43953;45.508;-122.806;2023-05-21T01:07:08;100881.19;;;28.79;37.81
50852;BME280;43953;45.508;-122.806;2023-05-21T01:07:40;100889.16;;;28.80;37.77
50852;BME280;43953;45.508;-122.806;2023-05-21T01:08:12;100873.03;;;28.74;37.78
50852;BME280;43953;45.508;-122.806;2023-05-21T01:08:45;100886.75;;;28.79;37.75
50852;BME280;43953;45.508;-122.806;2023-05-21T01:09:17;100886.09;;;28.82;37.85
50852;BME280;43953;45.508;-122.806;2023-05-21T01:09:49;100888.03;;;28.82;37.80
50852;BME280;43953;45.508;-122.806;2023-05-21T01:10:21;100870.78;;;28.76;37.74
50852;BME280;43953;45.508;-122.806;2023-05-21T01:10:54;100891.63;;;28.82;37.81
50852;BME280;43953;45.508;-122.806;2023-05-21T01:11:39;100890.47;;;28.83;37.83
50852;BME280;43953;45.508;-122.806;2023-05-21T01:12:11;100890.47;;;28.83;37.87
50852;BME280;43953;45.508;-122.806;2023-05-21T01:12:45;100889.34;;;28.84;37.75
50852;BME280;43953;45.508;-122.806;2023-05-21T01:13:18;100890.16;;;28.85;37.81
50852;BME280;43953;45.508;-122.806;2023-05-21T01:13:52;100887.69;;;28.83;37.84
50852;BME280;43953;45.508;-122.806;2023-05-21T01:14:24;100886.56;;;28.84;37.84
50852;BME280;43953;45.508;-122.806;2023-05-21T01:14:58;100888.50;;;28.84;37.66
50852;BME280;43953;45.508;-122.806;2023-05-21T01:15:30;100887.03;;;28.86;37.83
50852;BME280;43953;45.508;-122.806;2023-05-21T01:16:03;100887.84;;;28.87;37.79
50852;BME280;43953;45.508;-122.806;2023-05-21T01:16:38;100883.81;;;28.84;37.68
50852;BME280;43953;45.508;-122.806;2023-05-21T01:17:11;100885.91;;;28.87;37.64
50852;BME280;43953;45.508;-122.806;2023-05-21T01:17:44;100888.69;;;28.87;37.74
50852;BME280;43953;45.508;-122.806;2023-05-21T01:18:16;100889.16;;;28.89;37.68
50852;BME280;43953;45.508;-122.806;2023-05-21T01:18:50;100893.56;;;28.90;37.54
50852;BME280;43953;45.508;-122.806;2023-05-21T01:19:24;100888.34;;;28.89;37.48
50852;BME280;43953;45.508;-122.806;2023-05-21T01:19:57;100893.56;;;28.90;37.62
50852;BME280;43953;45.508;-122.806;2023-05-21T01:20:28;100874.34;;;28.85;37.69
50852;BME280;43953;45.508;-122.806;2023-05-21T01:21:03;100891.63;;;28.91;37.63
50852;BME280;43953;45.508;-122.806;2023-05-21T01:21:36;100892.44;;;28.91;37.56
50852;BME280;43953;45.508;-122.806;2023-05-21T01:22:12;100891.28;;;28.92;37.57
50852;BME280;43953;45.508;-122.806;2023-05-21T01:22:50;100894.03;;;28.92;37.47
50852;BME280;43953;45.508;-122.806;2023-05-21T01:23:23;100896.00;;;28.92;37.69
50852;BME280;43953;45.508;-122.806;2023-05-21T01:23:55;100896.81;;;28.92;37.69
50852;BME280;43953;45.508;-122.806;2023-05-21T01:24:27;100891.28;;;28.92;37.26
50852;BME280;43953;45.508;-122.806;2023-05-21T01:24:58;100887.69;;;28.92;37.45
50852;BME280;43953;45.508;-122.806;2023-05-21T01:25:34;100890.47;;;28.92;37.50
50852;BME280;43953;45.508;-122.806;2023-05-21T01:26:05;100895.34;;;28.95;37.47
50852;BME280;43953;45.508;-122.806;2023-05-21T01:26:38;100904.47;;;28.95;37.44
50852;BME280;43953;45.508;-122.806;2023-05-21T01:27:12;100895.34;;;28.95;37.33
50852;BME280;43953;45.508;-122.806;2023-05-21T01:27:44;100903.66;;;28.95;37.47
50852;BME280;43953;45.508;-122.806;2023-05-21T01:28:16;100897.81;;;28.96;37.46
50852;BME280;43953;45.508;-122.806;2023-05-21T01:28:47;100895.34;;;28.95;37.46
50852;BME280;43953;45.508;-122.806;2023-05-21T01:29:19;100894.69;;;28.98;37.42
50852;BME280;43953;45.508;-122.806;2023-05-21T01:29:51;100897.00;;;28.96;37.38
50852;BME280;43953;45.508;-122.806;2023-05-21T01:30:23;100889.16;;;28.98;37.57
50852;BME280;43953;45.508;-122.806;2023-05-21T01:31:01;100894.69;;;28.98;37.34
50852;BME280;43953;45.508;-122.806;2023-05-21T01:32:10;100893.88;;;28.97;37.42
50852;BME280;43953;45.508;-122.806;2023-05-21T01:33:03;100895.03;;;28.96;37.64
50852;BME280;43953;45.508;-122.806;2023-05-21T01:33:42;100899.41;;;28.97;37.48
50852;BME280;43953;45.508;-122.806;2023-05-21T01:34:21;100899.09;;;28.99;37.52
50852;BME280;43953;45.508;-122.806;2023-05-21T01:35:03;100901.88;;;28.99;37.48
50852;BME280;43953;45.508;-122.806;2023-05-21T01:35:39;100896.16;;;28.95;37.56
50852;BME280;43953;45.508;-122.806;2023-05-21T01:36:20;100901.03;;;28.98;37.56
50852;BME280;43953;45.508;-122.806;2023-05-21T01:37:30;100899.41;;;28.97;37.65
50852;BME280;43953;45.508;-122.806;2023-05-21T01:38:21;100907.06;;;29.00;37.47
50852;BME280;43953;45.508;-122.806;2023-05-21T01:39:05;100909.84;;;29.00;37.46
50852;BME280;43953;45.508;-122.806;2023-05-21T01:39:38;100901.25;;;29.02;37.48
50852;BME280;43953;45.508;-122.806;2023-05-21T01:40:17;100904.03;;;29.02;37.60
50852;BME280;43953;45.508;-122.806;2023-05-21T01:41:03;100899.56;;;29.01;37.56
50852;BME280;43953;45.508;-122.806;2023-05-21T01:41:40;100910.38;;;29.02;37.54
50852;BME280;43953;45.508;-122.806;2023-05-21T01:42:15;100901.25;;;29.02;37.63
50852;BME280;43953;45.508;-122.806;2023-05-21T01:42:48;100903.69;;;29.03;37.61
50852;BME280;43953;45.508;-122.806;2023-05-21T01:43:21;100902.06;;;29.02;37.64
50852;BME280;43953;45.508;-122.806;2023-05-21T01:43:55;100905.13;;;29.01;37.68
50852;BME280;43953;45.508;-122.806;2023-05-21T01:44:28;100905.47;;;28.99;37.34
50852;BME280;43953;45.508;-122.806;2023-05-21T01:45:02;100913.97;;;29.03;37.75
50852;BME280;43953;45.508;-122.806;2023-05-21T01:45:40;100907.59;;;29.02;37.56
50852;BME280;43953;45.508;-122.806;2023-05-21T01:46:19;100909.22;;;29.03;37.72
50852;BME280;43953;45.508;-122.806;2023-05-21T01:46:53;100912.34;;;29.02;37.63
50852;BME280;43953;45.508;-122.806;2023-05-21T01:47:28;100908.41;;;29.03;37.79
50852;BME280;43953;45.508;-122.806;2023-05-21T01:48:02;100916.72;;;29.03;37.70
50852;BME280;43953;45.508;-122.806;2023-05-21T01:48:37;100915.91;;;29.02;37.73
50852;BME280;43953;45.508;-122.806;2023-05-21T01:49:09;100915.56;;;29.04;37.74
50852;BME280;43953;45.508;-122.806;2023-05-21T01:49:41;100909.56;;;29.02;37.61
50852;BME280;43953;45.508;-122.806;2023-05-21T01:50:14;100918.03;;;29.06;37.60
50852;BME280;43953;45.508;-122.806;2023-05-21T01:50:46;100917.22;;;29.05;37.52
50852;BME280;43953;45.508;-122.806;2023-05-21T01:51:19;100918.03;;;29.06;37.65
50852;BME280;43953;45.508;-122.806;2023-05-21T01:51:51;100922.78;;;29.05;37.58
50852;BME280;43953;45.508;-122.806;2023-05-21T01:52:23;100919.66;;;29.07;37.65
50852;BME280;43953;45.508;-122.806;2023-05-21T01:52:55;100925.69;;;29.09;37.44
50852;BME280;43953;45.508;-122.806;2023-05-21T01:53:28;100924.06;;;29.08;37.59
50852;BME280;43953;45.508;-122.806;2023-05-21T01:54:00;100925.34;;;29.10;37.60
50852;BME280;43953;45.508;-122.806;2023-05-21T01:54:32;100922.91;;;29.09;37.56
50852;BME280;43953;45.508;-122.806;2023-05-21T01:55:04;100923.72;;;29.09;37.37
50852;BME280;43953;45.508;-122.806;2023-05-21T01:55:36;100930.09;;;29.10;37.64
50852;BME280;43953;45.508;-122.806;2023-05-21T01:56:11;100934.50;;;29.11;37.49
50852;BME280;43953;45.508;-122.806;2023-05-21T01:56:44;100929.78;;;29.11;37.44
50852;BME280;43953;45.508;-122.806;2023-05-21T01:57:16;100934.97;;;29.13;37.42
50852;BME280;43953;45.508;-122.806;2023-05-21T01:57:51;100936.13;;;29.12;37.55
50852;BME280;43953;45.508;-122.806;2023-05-21T01:58:24;100936.63;;;29.14;37.52
50852;BME280;43953;45.508;-122.806;2023-05-21T01:58:56;100935.78;;;29.13;37.44
50852;BME280;43953;45.508;-122.806;2023-05-21T01:59:29;100931.88;;;29.14;37.34
50852;BME280;43953;45.508;-122.806;2023-05-21T02:00:01;100939.03;;;29.15;37.55
50852;BME280;43953;45.508;-122.806;2023-05-21T02:00:35;100933.00;;;29.13;37.44
50852;BME280;43953;45.508;-122.806;2023-05-21T02:01:07;100939.03;;;29.15;37.40
50852;BME280;43953;45.508;-122.806;2023-05-21T02:01:39;100938.56;;;29.13;37.56
50852;BME280;43953;45.508;-122.806;2023-05-21T02:02:11;100935.13;;;29.16;37.30
50852;BME280;43953;45.508;-122.806;2023-05-21T02:02:43;100940.50;;;29.13;37.42
50852;BME280;43953;45.508;-122.806;2023-05-21T02:03:14;100946.56;;;29.15;37.47
50852;BME280;43953;45.508;-122.806;2023-05-21T02:03:46;100947.03;;;29.17;37.47
50852;BME280;43953;45.508;-122.806;2023-05-21T02:04:18;100952.09;;;29.15;37.65
50852;BME280;43953;45.508;-122.806;2023-05-21T02:04:50;100943.13;;;29.18;37.53
50852;BME280;43953;45.508;-122.806;2023-05-21T02:05:21;100948.66;;;29.18;37.46
50852;BME280;43953;45.508;-122.806;2023-05-21T02:05:53;100945.88;;;29.18;37.47
50852;BME280;43953;45.508;-122.806;2023-05-21T02:06:25;100948.66;;;29.18;37.41
50852;BME280;43953;45.508;-122.806;2023-05-21T02:06:57;100949.47;;;29.18;37.46
50852;BME280;43953;45.508;-122.806;2023-05-21T02:07:29;100953.06;;;29.19;37.42
50852;BME280;43953;45.508;-122.806;2023-05-21T02:08:02;100949.47;;;29.18;37.68
50852;BME280;43953;45.508;-122.806;2023-05-21T02:08:35;100950.28;;;29.19;37.53
50852;BME280;43953;45.508;-122.806;2023-05-21T02:09:08;100945.09;;;29.17;37.34
50852;BME280;43953;45.508;-122.806;2023-05-21T02:09:40;100946.38;;;29.20;37.58
50852;BME280;43953;45.508;-122.806;2023-05-21T02:10:12;100951.94;;;29.20;37.45
50852;BME280;43953;45.508;-122.806;2023-05-21T02:10:44;100942.63;;;29.16;37.54
50852;BME280;43953;45.508;-122.806;2023-05-21T02:11:16;100953.56;;;29.21;37.51
50852;BME280;43953;45.508;-122.806;2023-05-21T02:11:47;100948.00;;;29.21;37.60
50852;BME280;43953;45.508;-122.806;2023-05-21T02:12:19;100947.69;;;29.22;37.52
50852;BME280;43953;45.508;-122.806;2023-05-21T02:12:51;100949.63;;;29.22;37.46
50852;BME280;43953;45.508;-122.806;2023-05-21T02:13:23;100956.81;;;29.23;37.58
50852;BME280;43953;45.508;-122.806;2023-05-21T02:13:56;100947.69;;;29.22;37.61
50852;BME280;43953;45.508;-122.806;2023-05-21T02:14:27;100954.72;;;29.20;37.58
50852;BME280;43953;45.508;-122.806;2023-05-21T02:15:00;100950.13;;;29.24;37.54
50852;BME280;43953;45.508;-122.806;2023-05-21T02:15:33;100951.94;;;29.20;37.44
50852;BME280;43953;45.508;-122.806;2023-05-21T02:16:04;100954.03;;;29.23;37.44
50852;BME280;43953;45.508;-122.806;2023-05-21T02:16:40;100948.16;;;29.24;37.32
50852;BME280;43953;45.508;-122.806;2023-05-21T02:17:12;100953.69;;;29.24;37.32
50852;BME280;43953;45.508;-122.806;2023-05-21T02:17:45;100953.38;;;29.26;37.58
50852;BME280;43953;45.508;-122.806;2023-05-21T02:18:17;100951.75;;;29.25;37.48
50852;BME280;43953;45.508;-122.806;2023-05-21T02:18:51;100960.06;;;29.25;37.50
50852;BME280;43953;45.508;-122.806;2023-05-21T02:19:24;100962.50;;;29.27;37.31
50852;BME280;43953;45.508;-122.806;2023-05-21T02:19:56;100953.03;;;29.28;37.50
50852;BME280;43953;45.508;-122.806;2023-05-21T02:20:28;100964.94;;;29.28;37.37
50852;BME280;43953;45.508;-122.806;2023-05-21T02:21:00;100961.03;;;29.29;37.00
50852;BME280;43953;45.508;-122.806;2023-05-21T02:21:32;100961.03;;;29.29;37.20
50852;BME280;43953;45.508;-122.806;2023-05-21T02:22:04;100963.31;;;29.27;37.33
50852;BME280;43953;45.508;-122.806;2023-05-21T02:22:37;100965.44;;;29.30;37.55
50852;BME280;43953;45.508;-122.806;2023-05-21T02:23:09;100961.84;;;29.30;37.40
50852;BME280;43953;45.508;-122.806;2023-05-21T02:23:41;100960.22;;;29.29;37.35
50852;BME280;43953;45.508;-122.806;2023-05-21T02:24:13;100957.13;;;29.30;37.29
50852;BME280;43953;45.508;-122.806;2023-05-21T02:24:44;100961.03;;;29.29;37.24
50852;BME280;43953;45.508;-122.806;2023-05-21T02:25:18;100963.16;;;29.32;37.31
50852;BME280;43953;45.508;-122.806;2023-05-21T02:25:52;100965.94;;;29.32;37.24
50852;BME280;43953;45.508;-122.806;2023-05-21T02:26:24;100961.03;;;29.29;37.06
50852;BME280;43953;45.508;-122.806;2023-05-21T02:26:56;100962.00;;;29.33;37.28
50852;BME280;43953;45.508;-122.806;2023-05-21T02:27:28;100962.81;;;29.34;37.13
50852;BME280;43953;45.508;-122.806;2023-05-21T02:28:02;100969.50;;;29.33;37.29
50852;BME280;43953;45.508;-122.806;2023-05-21T02:28:33;100976.38;;;29.35;37.28
50852;BME280;43953;45.508;-122.806;2023-05-21T02:29:06;100962.81;;;29.34;37.12
50852;BME280;43953;45.508;-122.806;2023-05-21T02:29:38;100967.56;;;29.33;37.17
50852;BME280;43953;45.508;-122.806;2023-05-21T02:30:11;100966.41;;;29.34;37.13
50852;BME280;43953;45.508;-122.806;2023-05-21T02:30:43;100972.44;;;29.36;37.33
50852;BME280;43953;45.508;-122.806;2023-05-21T02:31:15;100967.56;;;29.33;37.38
50852;BME280;43953;45.508;-122.806;2023-05-21T02:31:47;100966.41;;;29.34;37.12
50852;BME280;43953;45.508;-122.806;2023-05-21T02:32:18;100958.28;;;29.29;37.36
50852;BME280;43953;45.508;-122.806;2023-05-21T02:32:50;100962.81;;;29.34;37.32
50852;BME280;43953;45.508;-122.806;2023-05-21T02:33:22;100968.84;;;29.36;37.12
50852;BME280;43953;45.508;-122.806;2023-05-21T02:33:53;100969.66;;;29.36;37.13
50852;BME280;43953;45.508;-122.806;2023-05-21T02:34:26;100972.44;;;29.36;37.30
50852;BME280;43953;45.508;-122.806;2023-05-21T02:35:02;100970.00;;;29.35;37.32
50852;BME280;43953;45.508;-122.806;2023-05-21T02:35:34;100972.44;;;29.36;37.47
50852;BME280;43953;45.508;-122.806;2023-05-21T02:36:06;100968.53;;;29.37;37.23
50852;BME280;43953;45.508;-122.806;2023-05-21T02:36:43;100965.28;;;29.35;37.35
50852;BME280;43953;45.508;-122.806;2023-05-21T02:37:14;100968.03;;;29.35;37.27
50852;BME280;43953;45.508;-122.806;2023-05-21T02:37:47;100966.41;;;29.34;37.34
50852;BME280;43953;45.508;-122.806;2023-05-21T02:38:19;100964.47;;;29.35;37.28
50852;BME280;43953;45.508;-122.806;2023-05-21T02:38:53;100964.47;;;29.35;37.42
50852;BME280;43953;45.508;-122.806;2023-05-21T02:39:25;100961.34;;;29.36;37.42
50852;BME280;43953;45.508;-122.806;2023-05-21T02:39:57;100974.09;;;29.37;37.37
50852;BME280;43953;45.508;-122.806;2023-05-21T02:40:28;100966.09;;;29.36;37.25
50852;BME280;43953;45.508;-122.806;2023-05-21T02:41:00;100963.31;;;29.36;37.43
50852;BME280;43953;45.508;-122.806;2023-05-21T02:41:32;100966.88;;;29.36;37.31
50852;BME280;43953;45.508;-122.806;2023-05-21T02:42:03;100968.53;;;29.37;37.27
50852;BME280;43953;45.508;-122.806;2023-05-21T02:42:36;100963.00;;;29.37;37.18
50852;BME280;43953;45.508;-122.806;2023-05-21T02:43:09;100963.81;;;29.38;37.38
50852;BME280;43953;45.508;-122.806;2023-05-21T02:43:41;100965.75;;;29.37;37.45
50852;BME280;43953;45.508;-122.806;2023-05-21T02:44:13;100967.38;;;29.38;37.30
50852;BME280;43953;45.508;-122.806;2023-05-21T02:44:44;100964.59;;;29.38;37.31
50852;BME280;43953;45.508;-122.806;2023-05-21T02:45:16;100963.00;;;29.37;37.42
50852;BME280;43953;45.508;-122.806;2023-05-21T02:45:48;100964.59;;;29.38;37.35
50852;BME280;43953;45.508;-122.806;2023-05-21T02:46:21;100965.41;;;29.39;37.18
50852;BME280;43953;45.508;-122.806;2023-05-21T02:46:53;100968.19;;;29.39;37.25